sensor_id;sensor_type;location;lat;lon;timestamp;P1;durP1;ratioP1;P2;durP2;ratioP2
45728;SDS011;31439;53.512;10.206;2023-06-10T00:02:26;8.15;;;4.00;;
45728;SDS011;31439;53.512;10.206;2023-06-10T00:04:52;7.43;;;3.55;;
45728;SDS011;31439;53.512;10.206;2023-06-10T00:07:18;8.88;;;3.95;;
45728;SDS011;31439;53.512;10.206;2023-06-10T00:09:44;8.10;;;3.42;;
45728;SDS011;31439;53.512;10.206;2023-06-10T00:12:10;9.05;;;3.58;;
45728;SDS011;31439;53.512;10.206;2023-06-10T00:14:37;11.18;;;3.90;;
45728;SDS011;31439;53.512;10.206;2023-06-10T00:17:04;8.57;;;3.50;;
45728;SDS011;31439;53.512;10.206;2023-06-10T00:19:34;10.70;;;4.38;;
45728;SDS011;31439;53.512;10.206;2023-06-10T00:22:01;7.38;;;3.42;;
45728;SDS011;31439;53.512;10.206;2023-06-10T00:24:28;9.40;;;3.55;;
45728;SDS011;31439;53.512;10.206;2023-06-10T00:26:54;8.52;;;3.42;;
45728;SDS011;31439;53.512;10.206;2023-06-10T00:29:20;11.35;;;4.40;;
45728;SDS011;31439;53.512;10.206;2023-06-10T00:31:46;8.40;;;4.07;;
45728;SDS011;31439;53.512;10.206;2023-06-10T00:34:12;8.27;;;3.72;;
45728;SDS011;31439;53.512;10.206;2023-06-10T00:36:38;10.93;;;4.32;;
45728;SDS011;31439;53.512;10.206;2023-06-10T00:39:04;8.32;;;4.20;;
45728;SDS011;31439;53.512;10.206;2023-06-10T00:41:30;8.80;;;4.10;;
45728;SDS011;31439;53.512;10.206;2023-06-10T00:43:58;10.82;;;3.78;;
45728;SDS011;31439;53.512;10.206;2023-06-10T00:46:24;8.20;;;4.10;;
45728;SDS011;31439;53.512;10.206;2023-06-10T00:48:51;9.10;;;4.00;;
45728;SDS011;31439;53.512;10.206;2023-06-10T00:51:18;10.63;;;4.20;;
45728;SDS011;31439;53.512;10.206;2023-06-10T00:53:44;10.95;;;4.18;;
45728;SDS011;31439;53.512;10.206;2023-06-10T00:56:11;10.05;;;4.05;;
45728;SDS011;31439;53.512;10.206;2023-06-10T00:58:37;9.25;;;3.80;;
45728;SDS011;31439;53.512;10.206;2023-06-10T01:01:03;7.05;;;3.78;;
45728;SDS011;31439;53.512;10.206;2023-06-10T01:03:29;8.02;;;4.15;;
45728;SDS011;31439;53.512;10.206;2023-06-10T01:08:57;9.07;;;3.78;;
45728;SDS011;31439;53.512;10.206;2023-06-10T01:11:34;10.52;;;3.88;;
45728;SDS011;31439;53.512;10.206;2023-06-10T01:14:02;7.43;;;3.42;;
45728;SDS011;31439;53.512;10.206;2023-06-10T01:16:30;9.85;;;3.22;;
45728;SDS011;31439;53.512;10.206;2023-06-10T01:18:56;9.13;;;3.63;;
45728;SDS011;31439;53.512;10.206;2023-06-10T01:21:23;11.38;;;3.55;;
45728;SDS011;31439;53.512;10.206;2023-06-10T01:23:50;6.78;;;3.38;;
45728;SDS011;31439;53.512;10.206;2023-06-10T01:26:16;8.23;;;3.58;;
45728;SDS011;31439;53.512;10.206;2023-06-10T01:33:59;10.20;;;3.30;;
45728;SDS011;31439;53.512;10.206;2023-06-10T01:36:25;8.15;;;3.47;;
45728;SDS011;31439;53.512;10.206;2023-06-10T01:38:53;9.52;;;3.38;;
45728;SDS011;31439;53.512;10.206;2023-06-10T01:41:19;7.90;;;3.40;;
45728;SDS011;31439;53.512;10.206;2023-06-10T01:43:46;6.75;;;3.60;;
45728;SDS011;31439;53.512;10.206;2023-06-10T01:46:13;7.78;;;3.60;;
45728;SDS011;31439;53.512;10.206;2023-06-10T01:48:39;8.75;;;3.28;;
45728;SDS011;31439;53.512;10.206;2023-06-10T01:51:05;6.05;;;3.10;;
45728;SDS011;31439;53.512;10.206;2023-06-10T01:53:31;11.32;;;3.33;;
45728;SDS011;31439;53.512;10.206;2023-06-10T01:55:57;7.55;;;3.30;;
45728;SDS011;31439;53.512;10.206;2023-06-10T01:58:23;13.70;;;3.60;;
45728;SDS011;31439;53.512;10.206;2023-06-10T02:00:49;5.90;;;3.03;;
45728;SDS011;31439;53.512;10.206;2023-06-10T02:03:15;6.18;;;3.20;;
45728;SDS011;31439;53.512;10.206;2023-06-10T02:05:41;7.70;;;3.70;;
45728;SDS011;31439;53.512;10.206;2023-06-10T02:08:08;9.20;;;3.55;;
45728;SDS011;31439;53.512;10.206;2023-06-10T02:10:34;10.23;;;3.60;;
45728;SDS011;31439;53.512;10.206;2023-06-10T02:13:00;6.93;;;3.45;;
45728;SDS011;31439;53.512;10.206;2023-06-10T02:15:26;6.78;;;3.38;;
45728;SDS011;31439;53.512;10.206;2023-06-10T02:17:52;7.35;;;3.60;;
45728;SDS011;31439;53.512;10.206;2023-06-10T02:20:19;7.60;;;3.70;;
45728;SDS011;31439;53.512;10.206;2023-06-10T02:22:46;9.00;;;3.60;;
45728;SDS011;31439;53.512;10.206;2023-06-10T02:25:12;8.05;;;3.35;;
45728;SDS011;31439;53.512;10.206;2023-06-10T02:27:38;11.20;;;3.67;;
45728;SDS011;31439;53.512;10.206;2023-06-10T02:30:04;7.97;;;3.35;;
45728;SDS011;31439;53.512;10.206;2023-06-10T02:32:30;9.75;;;3.60;;
45728;SDS011;31439;53.512;10.206;2023-06-10T02:34:56;8.23;;;3.38;;
45728;SDS011;31439;53.512;10.206;2023-06-10T02:37:22;8.30;;;3.55;;
45728;SDS011;31439;53.512;10.206;2023-06-10T02:39:48;10.48;;;3.47;;
45728;SDS011;31439;53.512;10.206;2023-06-10T02:42:14;11.25;;;3.50;;
45728;SDS011;31439;53.512;10.206;2023-06-10T02:44:40;6.95;;;3.13;;
45728;SDS011;31439;53.512;10.206;2023-06-10T02:47:07;6.47;;;3.00;;
45728;SDS011;31439;53.512;10.206;2023-06-10T02:49:33;8.07;;;3.22;;
45728;SDS011;31439;53.512;10.206;2023-06-10T02:51:59;7.63;;;3.53;;
45728;SDS011;31439;53.512;10.206;2023-06-10T02:54:25;7.47;;;3.15;;
45728;SDS011;31439;53.512;10.206;2023-06-10T02:56:52;7.78;;;3.08;;
45728;SDS011;31439;53.512;10.206;2023-06-10T02:59:20;10.43;;;3.40;;
45728;SDS011;31439;53.512;10.206;2023-06-10T03:01:46;7.15;;;2.80;;
45728;SDS011;31439;53.512;10.206;2023-06-10T03:04:13;10.27;;;3.53;;
45728;SDS011;31439;53.512;10.206;2023-06-10T03:06:39;8.23;;;3.38;;
45728;SDS011;31439;53.512;10.206;2023-06-10T03:09:06;6.25;;;3.10;;
45728;SDS011;31439;53.512;10.206;2023-06-10T03:11:32;7.63;;;2.72;;
45728;SDS011;31439;53.512;10.206;2023-06-10T03:13:58;7.18;;;2.90;;
45728;SDS011;31439;53.512;10.206;2023-06-10T03:16:24;7.55;;;3.30;;
45728;SDS011;31439;53.512;10.206;2023-06-10T03:18:52;11.55;;;2.97;;
45728;SDS011;31439;53.512;10.206;2023-06-10T03:21:18;7.43;;;3.20;;
45728;SDS011;31439;53.512;10.206;2023-06-10T03:23:44;5.90;;;2.75;;
45728;SDS011;31439;53.512;10.206;2023-06-10T03:26:11;8.02;;;3.42;;
45728;SDS011;31439;53.512;10.206;2023-06-10T03:28:39;6.00;;;2.90;;
45728;SDS011;31439;53.512;10.206;2023-06-10T03:31:05;5.82;;;2.83;;
45728;SDS011;31439;53.512;10.206;2023-06-10T03:33:31;10.68;;;3.20;;
45728;SDS011;31439;53.512;10.206;2023-06-10T03:35:58;10.85;;;3.15;;
45728;SDS011;31439;53.512;10.206;2023-06-10T03:38:24;9.43;;;2.95;;
45728;SDS011;31439;53.512;10.206;2023-06-10T03:40:50;5.75;;;2.67;;
45728;SDS011;31439;53.512;10.206;2023-06-10T03:43:16;9.55;;;3.15;;
45728;SDS011;31439;53.512;10.206;2023-06-10T03:45:42;9.43;;;2.78;;
45728;SDS011;31439;53.512;10.206;2023-06-10T03:48:08;7.28;;;3.03;;
45728;SDS011;31439;53.512;10.206;2023-06-10T03:50:34;8.35;;;3.10;;
45728;SDS011;31439;53.512;10.206;2023-06-10T03:53:01;8.77;;;2.85;;
45728;SDS011;31439;53.512;10.206;2023-06-10T03:55:27;6.22;;;2.90;;
45728;SDS011;31439;53.512;10.206;2023-06-10T03:57:53;9.63;;;3.00;;
45728;SDS011;31439;53.512;10.206;2023-06-10T04:00:19;9.13;;;2.78;;
45728;SDS011;31439;53.512;10.206;2023-06-10T04:02:47;9.57;;;2.72;;
45728;SDS011;31439;53.512;10.206;2023-06-10T04:05:18;6.47;;;2.55;;
45728;SDS011;31439;53.512;10.206;2023-06-10T04:07:48;5.93;;;2.55;;
45728;SDS011;31439;53.512;10.206;2023-06-10T04:10:14;8.77;;;2.78;;
45728;SDS011;31439;53.512;10.206;2023-06-10T04:12:40;8.48;;;2.95;;
45728;SDS011;31439;53.512;10.206;2023-06-10T04:15:07;7.95;;;2.85;;
45728;SDS011;31439;53.512;10.206;2023-06-10T04:17:33;9.60;;;2.97;;
45728;SDS011;31439;53.512;10.206;2023-06-10T04:20:00;10.52;;;2.70;;
45728;SDS011;31439;53.512;10.206;2023-06-10T04:22:26;6.93;;;2.40;;
45728;SDS011;31439;53.512;10.206;2023-06-10T04:24:52;8.35;;;2.40;;
45728;SDS011;31439;53.512;10.206;2023-06-10T04:27:18;7.10;;;2.47;;
45728;SDS011;31439;53.512;10.206;2023-06-10T04:29:44;10.02;;;2.50;;
45728;SDS011;31439;53.512;10.206;2023-06-10T04:32:10;10.30;;;2.83;;
45728;SDS011;31439;53.512;10.206;2023-06-10T04:34:36;8.02;;;2.65;;
45728;SDS011;31439;53.512;10.206;2023-06-10T04:37:08;6.10;;;2.47;;
45728;SDS011;31439;53.512;10.206;2023-06-10T04:39:38;5.85;;;2.40;;
45728;SDS011;31439;53.512;10.206;2023-06-10T04:42:06;6.60;;;1.98;;
45728;SDS011;31439;53.512;10.206;2023-06-10T04:44:32;9.40;;;2.63;;
45728;SDS011;31439;53.512;10.206;2023-06-10T04:46:58;6.10;;;2.30;;
45728;SDS011;31439;53.512;10.206;2023-06-10T04:49:27;7.82;;;2.45;;
45728;SDS011;31439;53.512;10.206;2023-06-10T04:51:54;5.63;;;2.03;;
45728;SDS011;31439;53.512;10.206;2023-06-10T04:54:20;6.90;;;2.22;;
45728;SDS011;31439;53.512;10.206;2023-06-10T04:56:46;9.40;;;2.25;;
45728;SDS011;31439;53.512;10.206;2023-06-10T04:59:15;7.25;;;2.17;;
45728;SDS011;31439;53.512;10.206;2023-06-10T05:01:41;6.85;;;2.00;;
45728;SDS011;31439;53.512;10.206;2023-06-10T05:04:09;6.20;;;2.55;;
45728;SDS011;31439;53.512;10.206;2023-06-10T05:06:35;7.95;;;2.33;;
45728;SDS011;31439;53.512;10.206;2023-06-10T05:09:02;7.78;;;2.63;;
45728;SDS011;31439;53.512;10.206;2023-06-10T05:11:31;8.13;;;2.10;;
45728;SDS011;31439;53.512;10.206;2023-06-10T05:13:57;8.30;;;2.25;;
45728;SDS011;31439;53.512;10.206;2023-06-10T05:16:23;10.48;;;2.20;;
45728;SDS011;31439;53.512;10.206;2023-06-10T05:18:49;7.50;;;2.33;;
45728;SDS011;31439;53.512;10.206;2023-06-10T05:21:17;9.18;;;2.20;;
45728;SDS011;31439;53.512;10.206;2023-06-10T05:23:43;10.05;;;2.55;;
45728;SDS011;31439;53.512;10.206;2023-06-10T05:26:09;8.48;;;2.30;;
45728;SDS011;31439;53.512;10.206;2023-06-10T05:28:35;5.43;;;1.98;;
45728;SDS011;31439;53.512;10.206;2023-06-10T05:31:02;11.70;;;2.22;;
45728;SDS011;31439;53.512;10.206;2023-06-10T05:33:28;11.32;;;2.65;;
45728;SDS011;31439;53.512;10.206;2023-06-10T05:35:54;5.97;;;2.00;;
45728;SDS011;31439;53.512;10.206;2023-06-10T05:38:20;9.40;;;2.20;;
45728;SDS011;31439;53.512;10.206;2023-06-10T05:40:46;6.88;;;2.13;;
45728;SDS011;31439;53.512;10.206;2023-06-10T05:43:12;7.78;;;1.90;;
45728;SDS011;31439;53.512;10.206;2023-06-10T05:45:39;8.85;;;2.30;;
45728;SDS011;31439;53.512;10.206;2023-06-10T05:48:05;10.73;;;2.05;;
45728;SDS011;31439;53.512;10.206;2023-06-10T05:50:31;11.95;;;2.63;;
45728;SDS011;31439;53.512;10.206;2023-06-10T05:53:03;7.45;;;2.05;;
45728;SDS011;31439;53.512;10.206;2023-06-10T05:55:29;6.00;;;2.15;;
45728;SDS011;31439;53.512;10.206;2023-06-10T05:57:58;9.93;;;2.45;;
45728;SDS011;31439;53.512;10.206;2023-06-10T06:00:24;7.28;;;2.33;;
45728;SDS011;31439;53.512;10.206;2023-06-10T06:02:51;8.35;;;2.05;;
45728;SDS011;31439;53.512;10.206;2023-06-10T06:05:19;7.25;;;1.98;;
45728;SDS011;31439;53.512;10.206;2023-06-10T06:07:45;9.20;;;2.03;;
45728;SDS011;31439;53.512;10.206;2023-06-10T06:10:11;7.80;;;2.40;;
45728;SDS011;31439;53.512;10.206;2023-06-10T06:12:37;10.52;;;2.53;;
45728;SDS011;31439;53.512;10.206;2023-06-10T06:15:03;8.82;;;2.35;;
45728;SDS011;31439;53.512;10.206;2023-06-10T06:17:29;8.25;;;2.40;;
45728;SDS011;31439;53.512;10.206;2023-06-10T06:19:55;10.25;;;2.30;;
45728;SDS011;31439;53.512;10.206;2023-06-10T06:22:21;7.88;;;2.10;;
45728;SDS011;31439;53.512;10.206;2023-06-10T06:24:47;10.25;;;2.38;;
45728;SDS011;31439;53.512;10.206;2023-06-10T06:27:14;8.55;;;2.53;;
45728;SDS011;31439;53.512;10.206;2023-06-10T06:29:40;5.18;;;1.92;;
45728;SDS011;31439;53.512;10.206;2023-06-10T06:32:06;9.68;;;2.65;;
45728;SDS011;31439;53.512;10.206;2023-06-10T06:34:32;8.48;;;2.40;;
45728;SDS011;31439;53.512;10.206;2023-06-10T06:36:58;8.88;;;2.28;;
45728;SDS011;31439;53.512;10.206;2023-06-10T06:39:24;6.13;;;2.03;;
45728;SDS011;31439;53.512;10.206;2023-06-10T06:41:50;9.70;;;2.10;;
45728;SDS011;31439;53.512;10.206;2023-06-10T06:44:16;6.70;;;2.33;;
45728;SDS011;31439;53.512;10.206;2023-06-10T06:46:42;10.13;;;2.38;;
45728;SDS011;31439;53.512;10.206;2023-06-10T06:49:08;7.88;;;3.17;;
45728;SDS011;31439;53.512;10.206;2023-06-10T06:51:34;9.07;;;3.47;;
45728;SDS011;31439;53.512;10.206;2023-06-10T06:54:02;6.55;;;2.53;;
45728;SDS011;31439;53.512;10.206;2023-06-10T06:56:28;6.90;;;2.83;;
45728;SDS011;31439;53.512;10.206;2023-06-10T06:58:54;7.07;;;3.00;;
45728;SDS011;31439;53.512;10.206;2023-06-10T07:01:20;8.70;;;2.40;;
45728;SDS011;31439;53.512;10.206;2023-06-10T07:03:46;9.40;;;2.22;;
45728;SDS011;31439;53.512;10.206;2023-06-10T07:06:12;9.23;;;2.90;;
45728;SDS011;31439;53.512;10.206;2023-06-10T07:08:39;7.82;;;2.53;;
45728;SDS011;31439;53.512;10.206;2023-06-10T07:11:05;10.30;;;2.88;;
45728;SDS011;31439;53.512;10.206;2023-06-10T07:13:31;9.43;;;2.42;;
45728;SDS011;31439;53.512;10.206;2023-06-10T07:15:57;9.68;;;2.65;;
45728;SDS011;31439;53.512;10.206;2023-06-10T07:18:23;11.02;;;2.72;;
45728;SDS011;31439;53.512;10.206;2023-06-10T07:20:49;6.90;;;2.35;;
45728;SDS011;31439;53.512;10.206;2023-06-10T07:23:15;6.38;;;2.80;;
45728;SDS011;31439;53.512;10.206;2023-06-10T07:25:41;7.90;;;2.58;;
45728;SDS011;31439;53.512;10.206;2023-06-10T07:28:08;8.15;;;2.70;;
45728;SDS011;31439;53.512;10.206;2023-06-10T07:30:34;8.73;;;2.25;;
45728;SDS011;31439;53.512;10.206;2023-06-10T07:33:00;9.90;;;2.33;;
45728;SDS011;31439;53.512;10.206;2023-06-10T07:35:27;7.30;;;2.50;;
45728;SDS011;31439;53.512;10.206;2023-06-10T07:37:53;7.95;;;2.38;;
45728;SDS011;31439;53.512;10.206;2023-06-10T07:40:19;6.78;;;2.55;;
45728;SDS011;31439;53.512;10.206;2023-06-10T07:42:45;8.20;;;3.88;;
45728;SDS011;31439;53.512;10.206;2023-06-10T07:45:11;7.05;;;3.42;;
45728;SDS011;31439;53.512;10.206;2023-06-10T07:47:43;8.30;;;3.08;;
45728;SDS011;31439;53.512;10.206;2023-06-10T07:50:09;8.93;;;2.60;;
45728;SDS011;31439;53.512;10.206;2023-06-10T07:52:41;8.45;;;3.15;;
45728;SDS011;31439;53.512;10.206;2023-06-10T07:55:07;7.75;;;2.95;;
45728;SDS011;31439;53.512;10.206;2023-06-10T07:57:33;8.15;;;2.45;;
45728;SDS011;31439;53.512;10.206;2023-06-10T08:00:02;8.95;;;2.97;;
45728;SDS011;31439;53.512;10.206;2023-06-10T08:02:29;9.35;;;2.78;;
45728;SDS011;31439;53.512;10.206;2023-06-10T08:04:55;6.78;;;2.97;;
45728;SDS011;31439;53.512;10.206;2023-06-10T08:07:21;6.60;;;2.63;;
45728;SDS011;31439;53.512;10.206;2023-06-10T08:09:47;9.15;;;2.83;;
45728;SDS011;31439;53.512;10.206;2023-06-10T08:12:13;7.50;;;3.20;;
45728;SDS011;31439;53.512;10.206;2023-06-10T08:14:40;8.23;;;2.88;;
45728;SDS011;31439;53.512;10.206;2023-06-10T08:17:06;8.35;;;2.75;;
45728;SDS011;31439;53.512;10.206;2023-06-10T08:19:32;7.22;;;2.97;;
45728;SDS011;31439;53.512;10.206;2023-06-10T08:21:58;7.70;;;2.80;;
45728;SDS011;31439;53.512;10.206;2023-06-10T08:24:24;8.50;;;3.13;;
45728;SDS011;31439;53.512;10.206;2023-06-10T08:26:50;8.45;;;2.60;;
45728;SDS011;31439;53.512;10.206;2023-06-10T08:29:16;7.75;;;2.67;;
45728;SDS011;31439;53.512;10.206;2023-06-10T08:31:43;7.82;;;2.80;;
45728;SDS011;31439;53.512;10.206;2023-06-10T08:34:12;8.57;;;2.85;;
45728;SDS011;31439;53.512;10.206;2023-06-10T08:45:07;8.80;;;3.13;;
45728;SDS011;31439;53.512;10.206;2023-06-10T08:47:33;7.97;;;2.67;;
45728;SDS011;31439;53.512;10.206;2023-06-10T08:50:09;8.63;;;2.90;;
45728;SDS011;31439;53.512;10.206;2023-06-10T08:52:36;9.45;;;2.67;;
45728;SDS011;31439;53.512;10.206;2023-06-10T08:55:04;6.32;;;2.90;;
45728;SDS011;31439;53.512;10.206;2023-06-10T08:57:30;11.40;;;3.28;;
45728;SDS011;31439;53.512;10.206;2023-06-10T08:59:57;13.52;;;3.28;;
45728;SDS011;31439;53.512;10.206;2023-06-10T09:02:24;9.85;;;3.13;;
45728;SDS011;31439;53.512;10.206;2023-06-10T09:04:50;9.13;;;3.25;;
45728;SDS011;31439;53.512;10.206;2023-06-10T09:07:17;8.00;;;2.58;;
45728;SDS011;31439;53.512;10.206;2023-06-10T09:09:43;9.60;;;3.10;;
45728;SDS011;31439;53.512;10.206;2023-06-10T09:12:10;8.73;;;3.45;;
45728;SDS011;31439;53.512;10.206;2023-06-10T09:14:36;6.90;;;2.97;;
45728;SDS011;31439;53.512;10.206;2023-06-10T09:17:11;9.07;;;3.10;;
45728;SDS011;31439;53.512;10.206;2023-06-10T09:19:38;6.68;;;2.90;;
45728;SDS011;31439;53.512;10.206;2023-06-10T09:22:08;8.02;;;3.10;;
45728;SDS011;31439;53.512;10.206;2023-06-10T09:24:34;7.88;;;3.10;;
45728;SDS011;31439;53.512;10.206;2023-06-10T09:27:04;7.43;;;3.17;;
45728;SDS011;31439;53.512;10.206;2023-06-10T09:29:51;8.45;;;3.45;;
45728;SDS011;31439;53.512;10.206;2023-06-10T09:32:18;8.10;;;3.00;;
45728;SDS011;31439;53.512;10.206;2023-06-10T09:34:50;8.35;;;3.15;;
45728;SDS011;31439;53.512;10.206;2023-06-10T09:37:20;8.75;;;3.47;;
45728;SDS011;31439;53.512;10.206;2023-06-10T09:42:56;9.27;;;3.10;;
45728;SDS011;31439;53.512;10.206;2023-06-10T09:45:31;8.35;;;3.17;;
45728;SDS011;31439;53.512;10.206;2023-06-10T09:48:04;7.88;;;3.10;;
45728;SDS011;31439;53.512;10.206;2023-06-10T09:50:33;9.45;;;3.25;;
45728;SDS011;31439;53.512;10.206;2023-06-10T09:53:06;6.10;;;3.20;;
45728;SDS011;31439;53.512;10.206;2023-06-10T09:55:33;11.15;;;3.65;;
45728;SDS011;31439;53.512;10.206;2023-06-10T09:58:05;7.47;;;3.30;;
45728;SDS011;31439;53.512;10.206;2023-06-10T10:00:32;9.55;;;3.70;;
45728;SDS011;31439;53.512;10.206;2023-06-10T10:03:01;8.77;;;3.30;;
45728;SDS011;31439;53.512;10.206;2023-06-10T10:05:30;9.63;;;4.93;;
45728;SDS011;31439;53.512;10.206;2023-06-10T10:08:02;9.43;;;3.85;;
45728;SDS011;31439;53.512;10.206;2023-06-10T10:10:28;6.57;;;3.20;;
45728;SDS011;31439;53.512;10.206;2023-06-10T10:12:56;7.00;;;3.20;;
45728;SDS011;31439;53.512;10.206;2023-06-10T10:15:31;7.55;;;3.15;;
45728;SDS011;31439;53.512;10.206;2023-06-10T10:18:08;8.25;;;3.67;;
45728;SDS011;31439;53.512;10.206;2023-06-10T10:20:42;9.15;;;3.58;;
45728;SDS011;31439;53.512;10.206;2023-06-10T10:23:18;8.88;;;3.25;;
45728;SDS011;31439;53.512;10.206;2023-06-10T10:25:56;8.07;;;3.67;;
45728;SDS011;31439;53.512;10.206;2023-06-10T10:28:23;8.02;;;3.72;;
45728;SDS011;31439;53.512;10.206;2023-06-10T10:30:52;6.97;;;3.58;;
45728;SDS011;31439;53.512;10.206;2023-06-10T10:33:19;8.35;;;3.30;;
45728;SDS011;31439;53.512;10.206;2023-06-10T10:35:48;10.85;;;3.78;;
45728;SDS011;31439;53.512;10.206;2023-06-10T10:38:15;8.23;;;3.30;;
45728;SDS011;31439;53.512;10.206;2023-06-10T10:40:41;7.68;;;3.17;;
45728;SDS011;31439;53.512;10.206;2023-06-10T10:43:09;10.95;;;3.65;;
45728;SDS011;31439;53.512;10.206;2023-06-10T10:45:36;8.20;;;3.75;;
45728;SDS011;31439;53.512;10.206;2023-06-10T10:48:06;10.50;;;3.47;;
45728;SDS011;31439;53.512;10.206;2023-06-10T10:50:35;7.85;;;3.40;;
45728;SDS011;31439;53.512;10.206;2023-06-10T10:53:02;7.85;;;3.22;;
45728;SDS011;31439;53.512;10.206;2023-06-10T10:55:28;8.40;;;3.50;;
45728;SDS011;31439;53.512;10.206;2023-06-10T10:57:55;7.82;;;3.55;;
45728;SDS011;31439;53.512;10.206;2023-06-10T11:00:28;7.55;;;3.05;;
45728;SDS011;31439;53.512;10.206;2023-06-10T11:02:57;8.57;;;3.70;;
45728;SDS011;31439;53.512;10.206;2023-06-10T11:08:03;11.18;;;3.70;;
45728;SDS011;31439;53.512;10.206;2023-06-10T11:10:33;8.88;;;4.20;;
45728;SDS011;31439;53.512;10.206;2023-06-10T11:13:00;6.85;;;3.90;;
45728;SDS011;31439;53.512;10.206;2023-06-10T11:15:27;7.57;;;3.72;;
45728;SDS011;31439;53.512;10.206;2023-06-10T11:18:06;10.88;;;4.00;;
45728;SDS011;31439;53.512;10.206;2023-06-10T11:20:45;8.52;;;3.40;;
45728;SDS011;31439;53.512;10.206;2023-06-10T11:23:24;10.70;;;3.90;;
45728;SDS011;31439;53.512;10.206;2023-06-10T11:25:51;9.80;;;4.05;;
45728;SDS011;31439;53.512;10.206;2023-06-10T11:28:17;10.55;;;3.80;;
45728;SDS011;31439;53.512;10.206;2023-06-10T11:30:44;11.30;;;4.20;;
45728;SDS011;31439;53.512;10.206;2023-06-10T11:33:13;8.32;;;4.25;;
45728;SDS011;31439;53.512;10.206;2023-06-10T11:35:40;8.90;;;4.38;;
45728;SDS011;31439;53.512;10.206;2023-06-10T11:38:06;7.90;;;4.00;;
45728;SDS011;31439;53.512;10.206;2023-06-10T11:40:32;5.95;;;3.53;;
45728;SDS011;31439;53.512;10.206;2023-06-10T11:42:59;11.30;;;4.00;;
45728;SDS011;31439;53.512;10.206;2023-06-10T11:45:25;11.05;;;4.03;;
45728;SDS011;31439;53.512;10.206;2023-06-10T11:47:55;7.90;;;3.70;;
45728;SDS011;31439;53.512;10.206;2023-06-10T11:50:31;10.40;;;3.92;;
45728;SDS011;31439;53.512;10.206;2023-06-10T11:52:58;11.60;;;4.03;;
45728;SDS011;31439;53.512;10.206;2023-06-10T11:55:25;9.93;;;4.07;;
45728;SDS011;31439;53.512;10.206;2023-06-10T11:57:51;5.78;;;3.42;;
45728;SDS011;31439;53.512;10.206;2023-06-10T12:00:22;6.93;;;3.42;;
45728;SDS011;31439;53.512;10.206;2023-06-10T12:02:58;7.85;;;3.90;;
45728;SDS011;31439;53.512;10.206;2023-06-10T12:05:24;8.00;;;4.38;;
45728;SDS011;31439;53.512;10.206;2023-06-10T12:08:07;7.63;;;3.92;;
45728;SDS011;31439;53.512;10.206;2023-06-10T12:10:33;7.68;;;3.85;;
45728;SDS011;31439;53.512;10.206;2023-06-10T12:13:04;9.02;;;4.13;;
45728;SDS011;31439;53.512;10.206;2023-06-10T12:15:30;7.97;;;4.10;;
45728;SDS011;31439;53.512;10.206;2023-06-10T12:17:57;9.00;;;3.67;;
45728;SDS011;31439;53.512;10.206;2023-06-10T12:20:27;11.23;;;4.20;;
45728;SDS011;31439;53.512;10.206;2023-06-10T12:22:53;7.07;;;3.80;;
45728;SDS011;31439;53.512;10.206;2023-06-10T12:25:24;8.25;;;4.00;;
45728;SDS011;31439;53.512;10.206;2023-06-10T12:27:51;10.15;;;3.85;;
45728;SDS011;31439;53.512;10.206;2023-06-10T12:30:21;11.02;;;4.78;;
45728;SDS011;31439;53.512;10.206;2023-06-10T12:32:48;9.70;;;4.75;;
45728;SDS011;31439;53.512;10.206;2023-06-10T12:35:18;7.35;;;4.05;;
45728;SDS011;31439;53.512;10.206;2023-06-10T12:38:05;5.70;;;3.88;;
45728;SDS011;31439;53.512;10.206;2023-06-10T12:40:37;9.23;;;3.95;;
45728;SDS011;31439;53.512;10.206;2023-06-10T12:43:05;10.40;;;4.32;;
45728;SDS011;31439;53.512;10.206;2023-06-10T12:45:32;11.30;;;4.30;;
45728;SDS011;31439;53.512;10.206;2023-06-10T12:50:40;9.43;;;4.07;;
45728;SDS011;31439;53.512;10.206;2023-06-10T12:53:06;6.68;;;4.03;;
45728;SDS011;31439;53.512;10.206;2023-06-10T12:55:33;8.07;;;4.70;;
45728;SDS011;31439;53.512;10.206;2023-06-10T12:57:59;9.77;;;4.10;;
45728;SDS011;31439;53.512;10.206;2023-06-10T13:00:28;8.80;;;4.10;;
45728;SDS011;31439;53.512;10.206;2023-06-10T13:03:01;5.80;;;3.42;;
45728;SDS011;31439;53.512;10.206;2023-06-10T13:05:28;5.05;;;3.47;;
45728;SDS011;31439;53.512;10.206;2023-06-10T13:07:55;7.53;;;4.30;;
45728;SDS011;31439;53.512;10.206;2023-06-10T13:10:21;7.25;;;4.10;;
45728;SDS011;31439;53.512;10.206;2023-06-10T13:12:47;7.40;;;3.83;;
45728;SDS011;31439;53.512;10.206;2023-06-10T13:15:14;6.90;;;3.90;;
45728;SDS011;31439;53.512;10.206;2023-06-10T13:17:41;8.07;;;3.67;;
45728;SDS011;31439;53.512;10.206;2023-06-10T13:20:07;6.95;;;3.95;;
45728;SDS011;31439;53.512;10.206;2023-06-10T13:22:34;6.75;;;3.70;;
45728;SDS011;31439;53.512;10.206;2023-06-10T13:25:04;6.55;;;4.03;;
45728;SDS011;31439;53.512;10.206;2023-06-10T13:27:32;8.32;;;3.95;;
45728;SDS011;31439;53.512;10.206;2023-06-10T13:29:59;8.57;;;4.05;;
45728;SDS011;31439;53.512;10.206;2023-06-10T13:32:25;6.97;;;3.80;;
45728;SDS011;31439;53.512;10.206;2023-06-10T13:34:51;7.90;;;3.92;;
45728;SDS011;31439;53.512;10.206;2023-06-10T13:37:18;7.68;;;4.13;;
45728;SDS011;31439;53.512;10.206;2023-06-10T13:39:44;8.55;;;3.90;;
45728;SDS011;31439;53.512;10.206;2023-06-10T13:42:15;8.10;;;3.75;;
45728;SDS011;31439;53.512;10.206;2023-06-10T13:44:41;10.25;;;4.00;;
45728;SDS011;31439;53.512;10.206;2023-06-10T13:47:07;9.40;;;4.28;;
45728;SDS011;31439;53.512;10.206;2023-06-10T13:49:33;9.48;;;3.72;;
45728;SDS011;31439;53.512;10.206;2023-06-10T13:51:58;11.60;;;3.97;;
45728;SDS011;31439;53.512;10.206;2023-06-10T13:54:24;7.00;;;3.28;;
45728;SDS011;31439;53.512;10.206;2023-06-10T13:56:50;10.45;;;3.50;;
45728;SDS011;31439;53.512;10.206;2023-06-10T13:59:15;10.73;;;3.55;;
45728;SDS011;31439;53.512;10.206;2023-06-10T14:01:41;9.98;;;3.20;;
45728;SDS011;31439;53.512;10.206;2023-06-10T14:04:07;7.18;;;3.58;;
45728;SDS011;31439;53.512;10.206;2023-06-10T14:06:33;10.05;;;3.60;;
45728;SDS011;31439;53.512;10.206;2023-06-10T14:09:01;9.38;;;3.35;;
45728;SDS011;31439;53.512;10.206;2023-06-10T14:11:27;10.38;;;3.40;;
45728;SDS011;31439;53.512;10.206;2023-06-10T14:13:53;8.32;;;3.30;;
45728;SDS011;31439;53.512;10.206;2023-06-10T14:16:21;13.73;;;3.55;;
45728;SDS011;31439;53.512;10.206;2023-06-10T14:18:47;7.80;;;3.00;;
45728;SDS011;31439;53.512;10.206;2023-06-10T14:21:12;8.93;;;3.47;;
45728;SDS011;31439;53.512;10.206;2023-06-10T14:23:38;9.70;;;3.72;;
45728;SDS011;31439;53.512;10.206;2023-06-10T14:26:04;10.40;;;3.55;;
45728;SDS011;31439;53.512;10.206;2023-06-10T14:28:32;7.35;;;3.00;;
45728;SDS011;31439;53.512;10.206;2023-06-10T14:30:57;7.72;;;3.20;;
45728;SDS011;31439;53.512;10.206;2023-06-10T14:33:23;7.75;;;3.08;;
45728;SDS011;31439;53.512;10.206;2023-06-10T14:35:49;5.60;;;2.60;;
45728;SDS011;31439;53.512;10.206;2023-06-10T14:38:14;7.18;;;2.95;;
45728;SDS011;31439;53.512;10.206;2023-06-10T14:40:40;10.35;;;3.38;;
45728;SDS011;31439;53.512;10.206;2023-06-10T14:43:05;9.77;;;3.53;;
45728;SDS011;31439;53.512;10.206;2023-06-10T14:45:35;7.32;;;4.32;;
45728;SDS011;31439;53.512;10.206;2023-06-10T14:48:02;10.13;;;3.30;;
45728;SDS011;31439;53.512;10.206;2023-06-10T14:50:28;10.05;;;3.20;;
45728;SDS011;31439;53.512;10.206;2023-06-10T14:52:54;10.80;;;3.30;;
45728;SDS011;31439;53.512;10.206;2023-06-10T14:55:20;8.88;;;3.42;;
45728;SDS011;31439;53.512;10.206;2023-06-10T14:57:47;9.68;;;3.10;;